ココス (キーリング) 諸島 の空港の天気 - METARとTAF

ココス島国際空港 ( YPCC / CCK ) - ココス諸島 ココス (キーリング) 諸島
飛行場実況気象(Metar)
観測時間12/15 19:00 CCT (12/15 12:30 UTC)
風向・風速東 9m/s
視程10km以上
天気現象
全天の8割程度の雲 雲底高度 520m
全天の8割程度の雲 雲底高度 1340m
全天を覆う雲 雲底高度 1490m
気温27℃
湿度84%
気圧1010hPa
METARYPCC 151230Z AUTO 10017KT 9999 // BKN017 BKN044 OVC049 27/24 Q1010
過去の天気等 Google飛行場航空写真 Wunderground天気予報

過去48時間のMETAR

飛行場予報(TAF)
発表時間: 12/15 18:48 CCT (12/15 12:18 UTC)
予報対象時間: 15日18時 CCT ~ 16日18時 CCT
風向・風速東 10m/s
視程10km以上
天気現象弱いしゅう雨
全天の4割程度の雲 雲底高度 460m
全天の8割程度の雲 雲底高度 610m
15日22時 CCT から
風向・風速東 10m/s
視程7000m
天気現象
全天の8割程度の雲 雲底高度 370m
16日10時 CCT から
風向・風速東北東 9m/s
視程10km以上
天気現象弱いしゅう雨
少しの雲 雲底高度 460m
全天の8割程度の雲 雲底高度 610m
15日18時 CCT ~ 16日18時 CCT に一時的に
風向・風速不定 13m/s 瞬間風速 21m/s
視程1000m
天気現象雷雨
全天の8割程度の雲 雲底高度 240m
少しの積乱雲 雲底高度 610m
TAF AMD YPCC 151218Z 1512/1612 09020KT 9999 -SHRA SCT015 BKN020
FM151600 08020KT 7000 RA BKN012
FM160400 07018KT 9999 -SHRA FEW015 BKN020
TEMPO 1512/1612 VRB25G40KT 1000 TSRA BKN008 FEW020CB